Map

Track Data

SID SEASON NUMBER BASIN SUBBASIN NAME ISO_TIME NATURE LAT LON WMO_WIND WMO_PRES WMO_AGENCY TRACK_TYPE DIST2LAND LANDFALL IFLAG USA_AGENCY USA_ATCF_ID USA_LAT USA_LON USA_RECORD USA_STATUS USA_WIND USA_PRES USA_SSHS USA_R34_NE USA_R34_SE USA_R34_SW USA_R34_NW USA_R50_NE USA_R50_SE USA_R50_SW USA_R50_NW USA_R64_NE USA_R64_SE USA_R64_SW USA_R64_NW USA_POCI USA_ROCI USA_RMW USA_EYE TOKYO_LAT TOKYO_LON TOKYO_GRADE TOKYO_WIND TOKYO_PRES TOKYO_R50_DIR TOKYO_R50_LONG TOKYO_R50_SHORT TOKYO_R30_DIR TOKYO_R30_LONG TOKYO_R30_SHORT TOKYO_LAND CMA_LAT CMA_LON CMA_CAT CMA_WIND CMA_PRES HKO_LAT HKO_LON HKO_CAT HKO_WIND HKO_PRES NEWDELHI_LAT NEWDELHI_LON NEWDELHI_GRADE NEWDELHI_WIND NEWDELHI_PRES NEWDELHI_CI NEWDELHI_DP NEWDELHI_POCI REUNION_LAT REUNION_LON REUNION_TYPE REUNION_WIND REUNION_PRES REUNION_TNUM REUNION_CI REUNION_RMW REUNION_R34_NE REUNION_R34_SE REUNION_R34_SW REUNION_R34_NW REUNION_R50_NE REUNION_R50_SE REUNION_R50_SW REUNION_R50_NW REUNION_R64_NE REUNION_R64_SE REUNION_R64_SW REUNION_R64_NW BOM_LAT BOM_LON BOM_TYPE BOM_WIND BOM_PRES BOM_TNUM BOM_CI BOM_RMW BOM_R34_NE BOM_R34_SE BOM_R34_SW BOM_R34_NW BOM_R50_NE BOM_R50_SE BOM_R50_SW BOM_R50_NW BOM_R64_NE BOM_R64_SE BOM_R64_SW BOM_R64_NW BOM_ROCI BOM_POCI BOM_EYE BOM_POS_METHOD BOM_PRES_METHOD NADI_LAT NADI_LON NADI_CAT NADI_WIND NADI_PRES WELLINGTON_LAT WELLINGTON_LON WELLINGTON_WIND WELLINGTON_PRES DS824_LAT DS824_LON DS824_STAGE DS824_WIND DS824_PRES TD9636_LAT TD9636_LON TD9636_STAGE TD9636_WIND TD9636_PRES TD9635_LAT TD9635_LON TD9635_WIND TD9635_PRES TD9635_ROCI NEUMANN_LAT NEUMANN_LON NEUMANN_CLASS NEUMANN_WIND NEUMANN_PRES MLC_LAT MLC_LON MLC_CLASS MLC_WIND MLC_PRES USA_GUST BOM_GUST BOM_GUST_PER REUNION_GUST REUNION_GUST_PER USA_SEAHGT USA_SEARAD_NE USA_SEARAD_SE USA_SEARAD_SW USA_SEARAD_NW STORM_SPEED STORM_DIR
1916308N10117 1916 65 WP MM NOT_NAMED 1916-11-03 10:00:00 NR 10.0000 117.000 main 125 125 __________O___ -1 10.0000 117.000 7 27 275
1916308N10117 1916 65 WP MM NOT_NAMED 1916-11-03 12:00:00 NR 10.0756 116.090 main 204 212 __________P___ -1 10.0756 116.090 7 26 275
1916308N10117 1916 65 WP MM NOT_NAMED 1916-11-03 15:00:00 NR 10.1830 114.777 main 327 337 __________P___ -1 10.1830 114.777 7 25 275
1916308N10117 1916 65 WP MM NOT_NAMED 1916-11-03 18:00:00 NR 10.2818 113.603 main 448 407 __________P___ -1 10.2818 113.603 7 21 275
1916308N10117 1916 65 WP MM NOT_NAMED 1916-11-03 21:00:00 NR 10.3719 112.653 main 407 377 __________P___ -1 10.3719 112.653 7 18 276
1916308N10117 1916 65 WP MM NOT_NAMED 1916-11-03 22:00:00 NR 10.4000 112.400 main 377 333 __________O___ -1 10.4000 112.400 7 13 277
1916308N10117 1916 65 WP MM NOT_NAMED 1916-11-04 00:00:00 NR 10.4537 112.000 main 333 294 __________P___ -1 10.4537 112.000 7 9 279
1916308N10117 1916 65 WP MM NOT_NAMED 1916-11-04 03:00:00 NR 10.5298 111.609 main 294 269 __________P___ -1 10.5298 111.609 7 6 284
1916308N10117 1916 65 WP MM NOT_NAMED 1916-11-04 06:00:00 NR 10.6030 111.370 main 269 245 __________P___ -1 10.6030 111.370 7 5 289
1916308N10117 1916 65 WP MM NOT_NAMED 1916-11-04 09:00:00 NR 10.6756 111.174 main 245 235 __________P___ -1 10.6756 111.174 7 4 290
1916308N10117 1916 65 WP MM NOT_NAMED 1916-11-04 10:00:00 NR 10.7000 111.100 main 235 216 __________O___ -1 10.7000 111.100 7 6 283
1916308N10117 1916 65 WP MM NOT_NAMED 1916-11-04 12:00:00 NR 10.7446 110.869 main 216 174 __________P___ -1 10.7446 110.869 7 7 281
1916308N10117 1916 65 WP MM NOT_NAMED 1916-11-04 15:00:00 NR 10.8115 110.511 main 174 132 __________P___ -1 10.8115 110.511 7 7 281
1916308N10117 1916 65 WP MM NOT_NAMED 1916-11-04 18:00:00 NR 10.8840 110.134 main 132 88 __________P___ -1 10.8840 110.134 7 8 282
1916308N10117 1916 65 WP MM NOT_NAMED 1916-11-04 21:00:00 NR 10.9682 109.737 main 88 79 __________P___ -1 10.9682 109.737 7 8 282
1916308N10117 1916 65 WP MM NOT_NAMED 1916-11-04 22:00:00 NR 11.0000 109.600 main 79 46 __________O___ -1 11.0000 109.600 7 9 283
1916308N10117 1916 65 WP MM NOT_NAMED 1916-11-05 00:00:00 NR 11.0614 109.314 main 46 15 __________P___ -1 11.0614 109.314 7 9 283
1916308N10117 1916 65 WP MM NOT_NAMED 1916-11-05 03:00:00 NR 11.1659 108.867 main 15 0 __________P___ -1 11.1659 108.867 7 9 284
1916308N10117 1916 65 WP MM NOT_NAMED 1916-11-05 06:00:00 NR 11.2908 108.408 main 0 0 __________P___ -1 11.2908 108.408 7 9 287
1916308N10117 1916 65 WP MM NOT_NAMED 1916-11-05 09:00:00 NR 11.4424 107.950 main 0 0 __________P___ -1 11.4424 107.950 7 9 289
1916308N10117 1916 65 WP MM NOT_NAMED 1916-11-05 10:00:00 NR 11.5000 107.800 main 0 0 __________O___ -1 11.5000 107.800 7 9 293
1916308N10117 1916 65 WP MM NOT_NAMED 1916-11-05 12:00:00 NR 11.6263 107.505 main 0 0 __________P___ -1 11.6263 107.505 7 9 295
1916308N10117 1916 65 WP MM NOT_NAMED 1916-11-05 15:00:00 NR 11.8394 107.074 main 0 0 __________P___ -1 11.8394 107.074 7 9 298
1916308N10117 1916 65 WP MM NOT_NAMED 1916-11-05 18:00:00 NR 12.0727 106.654 main 0 0 __________P___ -1 12.0727 106.654 7 10 300
1916308N10117 1916 65 WP MM NOT_NAMED 1916-11-05 21:00:00 NR 12.3175 106.238 main 0 0 __________P___ -1 12.3175 106.238 7 10 301
1916308N10117 1916 65 WP MM NOT_NAMED 1916-11-05 22:00:00 NR 12.4000 106.100 main 0 __________O___ -1 12.4000 106.100 7 10 301

Digital Typhoon Data and Search

About IBTrACS Database

This database is a web-friendly format of International Best Track Archive for Climate Stewardship (IBTrACS), a global best track data archive curated by NOAA dating back to 1842.

Updated: 2021-11-26